sensor_id;sensor_type;location;lat;lon;timestamp;pressure;altitude;pressure_sealevel;temperature;humidity
7888;BME280;3989;48.810;9.208;2022-12-07T00:02:05;98871.88;;;3.32;100.00
7888;BME280;3989;48.810;9.208;2022-12-07T00:04:32;98874.69;;;3.40;100.00
7888;BME280;3989;48.810;9.208;2022-12-07T00:07:00;98862.97;;;3.33;100.00
7888;BME280;3989;48.810;9.208;2022-12-07T00:09:28;98823.41;;;3.03;100.00
7888;BME280;3989;48.810;9.208;2022-12-07T00:11:55;98904.31;;;3.53;100.00
7888;BME280;3989;48.810;9.208;2022-12-07T00:14:23;98822.31;;;3.05;100.00
7888;BME280;3989;48.810;9.208;2022-12-07T00:16:51;98828.03;;;3.10;100.00
7888;BME280;3989;48.810;9.208;2022-12-07T00:19:18;98836.41;;;3.15;100.00
7888;BME280;3989;48.810;9.208;2022-12-07T00:21:45;98890.81;;;3.47;100.00
7888;BME280;3989;48.810;9.208;2022-12-07T00:24:11;98895.00;;;3.49;100.00
7888;BME280;3989;48.810;9.208;2022-12-07T00:26:41;98870.63;;;3.36;100.00
7888;BME280;3989;48.810;9.208;2022-12-07T00:29:13;98869.34;;;3.31;100.00
7888;BME280;3989;48.810;9.208;2022-12-07T00:31:41;98875.22;;;3.34;100.00
7888;BME280;3989;48.810;9.208;2022-12-07T00:34:12;98829.97;;;3.08;100.00
7888;BME280;3989;48.810;9.208;2022-12-07T00:36:39;98854.63;;;3.28;100.00
7888;BME280;3989;48.810;9.208;2022-12-07T00:39:06;98889.88;;;3.48;100.00
7888;BME280;3989;48.810;9.208;2022-12-07T00:41:32;98824.56;;;3.10;100.00
7888;BME280;3989;48.810;9.208;2022-12-07T00:44:00;98848.22;;;3.21;100.00
7888;BME280;3989;48.810;9.208;2022-12-07T00:46:28;98813.13;;;3.00;100.00
7888;BME280;3989;48.810;9.208;2022-12-07T00:48:54;98866.72;;;3.31;100.00
7888;BME280;3989;48.810;9.208;2022-12-07T00:51:23;98818.84;;;3.05;100.00
7888;BME280;3989;48.810;9.208;2022-12-07T00:53:52;98843.56;;;3.13;100.00
7888;BME280;3989;48.810;9.208;2022-12-07T00:56:21;98809.78;;;2.98;100.00
7888;BME280;3989;48.810;9.208;2022-12-07T00:58:53;98840.41;;;3.10;100.00
7888;BME280;3989;48.810;9.208;2022-12-07T01:01:23;98831.59;;;3.00;100.00
7888;BME280;3989;48.810;9.208;2022-12-07T01:03:50;98890.19;;;3.34;100.00
7888;BME280;3989;48.810;9.208;2022-12-07T01:06:19;98830.69;;;2.90;100.00
7888;BME280;3989;48.810;9.208;2022-12-07T01:08:46;98849.91;;;3.01;100.00
7888;BME280;3989;48.810;9.208;2022-12-07T01:11:15;98889.44;;;3.22;100.00
7888;BME280;3989;48.810;9.208;2022-12-07T01:13:42;98882.75;;;3.18;100.00
7888;BME280;3989;48.810;9.208;2022-12-07T01:16:11;98864.88;;;3.01;100.00
7888;BME280;3989;48.810;9.208;2022-12-07T01:18:40;98852.88;;;2.87;100.00
7888;BME280;3989;48.810;9.208;2022-12-07T01:21:10;98890.34;;;3.11;100.00
7888;BME280;3989;48.810;9.208;2022-12-07T01:23:37;98899.22;;;3.10;100.00
7888;BME280;3989;48.810;9.208;2022-12-07T01:26:06;98905.47;;;3.09;100.00
7888;BME280;3989;48.810;9.208;2022-12-07T01:28:33;98840.97;;;2.72;100.00
7888;BME280;3989;48.810;9.208;2022-12-07T01:31:02;98875.50;;;2.90;100.00
7888;BME280;3989;48.810;9.208;2022-12-07T01:33:31;98903.09;;;3.06;100.00
7888;BME280;3989;48.810;9.208;2022-12-07T01:36:03;98893.88;;;3.01;100.00
7888;BME280;3989;48.810;9.208;2022-12-07T01:38:29;98849.59;;;2.74;100.00
7888;BME280;3989;48.810;9.208;2022-12-07T01:40:57;98875.50;;;2.90;100.00
7888;BME280;3989;48.810;9.208;2022-12-07T01:43:26;98869.19;;;2.81;100.00
7888;BME280;3989;48.810;9.208;2022-12-07T01:45:54;98911.44;;;3.11;100.00
7888;BME280;3989;48.810;9.208;2022-12-07T01:48:22;98882.91;;;2.96;100.00
7888;BME280;3989;48.810;9.208;2022-12-07T01:50:51;98898.66;;;3.07;100.00
7888;BME280;3989;48.810;9.208;2022-12-07T01:53:24;98893.88;;;3.01;100.00
7888;BME280;3989;48.810;9.208;2022-12-07T01:55:52;98860.31;;;2.82;100.00
7888;BME280;3989;48.810;9.208;2022-12-07T01:58:20;98911.44;;;3.11;100.00
7888;BME280;3989;48.810;9.208;2022-12-07T02:00:47;98911.59;;;3.10;100.00
7888;BME280;3989;48.810;9.208;2022-12-07T02:03:18;98871.59;;;2.84;100.00
7888;BME280;3989;48.810;9.208;2022-12-07T02:05:48;98900.00;;;3.01;100.00
7888;BME280;3989;48.810;9.208;2022-12-07T02:08:16;98874.66;;;2.89;100.00
7888;BME280;3989;48.810;9.208;2022-12-07T02:10:45;98880.38;;;2.94;100.00
7888;BME280;3989;48.810;9.208;2022-12-07T02:13:14;98911.84;;;3.07;100.00
7888;BME280;3989;48.810;9.208;2022-12-07T02:18:38;98895.44;;;3.03;100.00
7888;BME280;3989;48.810;9.208;2022-12-07T02:21:11;98881.09;;;2.96;100.00
7888;BME280;3989;48.810;9.208;2022-12-07T02:23:48;98879.94;;;2.89;100.00
7888;BME280;3989;48.810;9.208;2022-12-07T02:29:28;98827.63;;;2.64;100.00
7888;BME280;3989;48.810;9.208;2022-12-07T02:32:03;98897.69;;;3.08;100.00
7888;BME280;3989;48.810;9.208;2022-12-07T02:34:39;98871.13;;;3.00;100.00
7888;BME280;3989;48.810;9.208;2022-12-07T02:37:12;98893.94;;;3.10;100.00
7888;BME280;3989;48.810;9.208;2022-12-07T02:39:48;98891.19;;;3.12;100.00
7888;BME280;3989;48.810;9.208;2022-12-07T02:42:23;98842.81;;;2.81;100.00
7888;BME280;3989;48.810;9.208;2022-12-07T02:44:52;98838.13;;;2.85;100.00
7888;BME280;3989;48.810;9.208;2022-12-07T02:47:21;98866.19;;;3.06;100.00
7888;BME280;3989;48.810;9.208;2022-12-07T02:49:49;98824.78;;;2.77;100.00
7888;BME280;3989;48.810;9.208;2022-12-07T02:52:16;98876.22;;;3.12;100.00
7888;BME280;3989;48.810;9.208;2022-12-07T02:54:42;98873.16;;;3.17;100.00
7888;BME280;3989;48.810;9.208;2022-12-07T02:57:26;98871.50;;;3.16;100.00
7888;BME280;3989;48.810;9.208;2022-12-07T03:00:03;98850.16;;;2.98;100.00
7888;BME280;3989;48.810;9.208;2022-12-07T03:02:38;98830.31;;;2.74;100.00
7888;BME280;3989;48.810;9.208;2022-12-07T03:05:35;98804.22;;;2.71;100.00
7888;BME280;3989;48.810;9.208;2022-12-07T03:08:11;98832.44;;;2.80;100.00
7888;BME280;3989;48.810;9.208;2022-12-07T03:10:45;98804.06;;;2.72;100.00
7888;BME280;3989;48.810;9.208;2022-12-07T03:13:22;98852.09;;;2.96;100.00
7888;BME280;3989;48.810;9.208;2022-12-07T03:15:56;98851.13;;;2.97;100.00
7888;BME280;3989;48.810;9.208;2022-12-07T03:18:27;98792.63;;;2.62;100.00
7888;BME280;3989;48.810;9.208;2022-12-07T03:21:01;98867.97;;;3.06;100.00
7888;BME280;3989;48.810;9.208;2022-12-07T03:23:30;98852.94;;;2.97;100.00
7888;BME280;3989;48.810;9.208;2022-12-07T03:26:00;98866.13;;;2.97;100.00
7888;BME280;3989;48.810;9.208;2022-12-07T03:28:31;98869.47;;;2.99;100.00
7888;BME280;3989;48.810;9.208;2022-12-07T03:31:02;98854.16;;;2.93;100.00
7888;BME280;3989;48.810;9.208;2022-12-07T03:33:35;98838.97;;;2.85;100.00
7888;BME280;3989;48.810;9.208;2022-12-07T03:36:06;98864.56;;;2.94;100.00
7888;BME280;3989;48.810;9.208;2022-12-07T03:38:38;98854.28;;;2.91;100.00
7888;BME280;3989;48.810;9.208;2022-12-07T03:41:10;98851.06;;;2.88;100.00
7888;BME280;3989;48.810;9.208;2022-12-07T03:43:39;98840.72;;;2.75;100.00
7888;BME280;3989;48.810;9.208;2022-12-07T03:46:17;98839.00;;;2.64;100.00
7888;BME280;3989;48.810;9.208;2022-12-07T03:48:51;98818.22;;;2.50;100.00
7888;BME280;3989;48.810;9.208;2022-12-07T03:51:22;98852.50;;;2.71;100.00
7888;BME280;3989;48.810;9.208;2022-12-07T03:53:54;98851.50;;;2.72;100.00
7888;BME280;3989;48.810;9.208;2022-12-07T03:56:26;98853.56;;;2.69;100.00
7888;BME280;3989;48.810;9.208;2022-12-07T03:58:53;98847.25;;;2.60;100.00
7888;BME280;3989;48.810;9.208;2022-12-07T04:01:22;98809.31;;;2.31;100.00
7888;BME280;3989;48.810;9.208;2022-12-07T04:03:49;98849.25;;;2.47;100.00
7888;BME280;3989;48.810;9.208;2022-12-07T04:06:15;98854.78;;;2.33;100.00
7888;BME280;3989;48.810;9.208;2022-12-07T04:08:42;98849.34;;;2.13;100.00
7888;BME280;3989;48.810;9.208;2022-12-07T04:11:09;98834.97;;;1.86;100.00
7888;BME280;3989;48.810;9.208;2022-12-07T04:13:35;98825.91;;;1.68;100.00
7888;BME280;3989;48.810;9.208;2022-12-07T04:16:23;98843.13;;;1.61;100.00
7888;BME280;3989;48.810;9.208;2022-12-07T04:18:50;98829.63;;;1.54;100.00
7888;BME280;3989;48.810;9.208;2022-12-07T04:21:16;98841.69;;;1.56;100.00
7888;BME280;3989;48.810;9.208;2022-12-07T04:23:43;98827.59;;;1.46;100.00
7888;BME280;3989;48.810;9.208;2022-12-07T04:26:09;98832.59;;;1.49;100.00
7888;BME280;3989;48.810;9.208;2022-12-07T04:28:36;98800.47;;;1.35;100.00
7888;BME280;3989;48.810;9.208;2022-12-07T04:31:03;98813.84;;;1.54;100.00
7888;BME280;3989;48.810;9.208;2022-12-07T04:33:31;98790.66;;;1.48;100.00
7888;BME280;3989;48.810;9.208;2022-12-07T04:35:57;98766.41;;;1.44;100.00
7888;BME280;3989;48.810;9.208;2022-12-07T04:38:24;98819.41;;;1.83;100.00
7888;BME280;3989;48.810;9.208;2022-12-07T04:40:50;98820.00;;;1.86;100.00
7888;BME280;3989;48.810;9.208;2022-12-07T04:43:17;98812.56;;;1.91;100.00
7888;BME280;3989;48.810;9.208;2022-12-07T04:45:46;98796.53;;;1.94;100.00
7888;BME280;3989;48.810;9.208;2022-12-07T04:48:12;98783.00;;;1.99;100.00
7888;BME280;3989;48.810;9.208;2022-12-07T10:50:55;98839.22;;;5.46;100.00
7888;BME280;3989;48.810;9.208;2022-12-07T10:53:51;98796.69;;;5.20;100.00
7888;BME280;3989;48.810;9.208;2022-12-07T10:56:54;98827.00;;;5.35;100.00
7888;BME280;3989;48.810;9.208;2022-12-07T10:59:41;98808.38;;;5.17;100.00
7888;BME280;3989;48.810;9.208;2022-12-07T11:02:25;98839.81;;;5.30;100.00
7888;BME280;3989;48.810;9.208;2022-12-07T11:05:05;98736.13;;;4.70;100.00
7888;BME280;3989;48.810;9.208;2022-12-07T11:07:45;98822.56;;;5.26;100.00
7888;BME280;3989;48.810;9.208;2022-12-07T11:10:19;98822.56;;;5.26;100.00
7888;BME280;3989;48.810;9.208;2022-12-07T13:41:20;98656.47;;;4.46;100.00
7888;BME280;3989;48.810;9.208;2022-12-07T13:54:11;98726.50;;;4.79;100.00
7888;BME280;3989;48.810;9.208;2022-12-07T13:56:42;98580.75;;;3.91;100.00
7888;BME280;3989;48.810;9.208;2022-12-07T13:59:14;98698.03;;;4.63;100.00
7888;BME280;3989;48.810;9.208;2022-12-07T14:01:46;98670.97;;;4.52;100.00
7888;BME280;3989;48.810;9.208;2022-12-07T14:04:34;98670.78;;;4.53;100.00
7888;BME280;3989;48.810;9.208;2022-12-07T14:07:19;98613.00;;;4.31;100.00
7888;BME280;3989;48.810;9.208;2022-12-07T14:09:54;98621.88;;;4.40;100.00
7888;BME280;3989;48.810;9.208;2022-12-07T14:12:24;98572.78;;;4.10;100.00
7888;BME280;3989;48.810;9.208;2022-12-07T14:14:52;98663.91;;;4.80;100.00
7888;BME280;3989;48.810;9.208;2022-12-07T14:17:22;98633.19;;;4.69;100.00
7888;BME280;3989;48.810;9.208;2022-12-07T14:19:53;98577.47;;;4.53;100.00
7888;BME280;3989;48.810;9.208;2022-12-07T14:22:27;98653.06;;;5.10;100.00
7888;BME280;3989;48.810;9.208;2022-12-07T14:25:19;98701.81;;;5.52;100.00
7888;BME280;3989;48.810;9.208;2022-12-07T14:28:01;98622.34;;;4.99;100.00
7888;BME280;3989;48.810;9.208;2022-12-07T14:30:30;98602.13;;;4.81;100.00
7888;BME280;3989;48.810;9.208;2022-12-07T14:32:59;98654.31;;;5.06;100.00
7888;BME280;3989;48.810;9.208;2022-12-07T14:35:28;98622.72;;;4.77;100.00
7888;BME280;3989;48.810;9.208;2022-12-07T14:37:55;98623.44;;;4.69;100.00
7888;BME280;3989;48.810;9.208;2022-12-07T14:40:24;98658.03;;;4.86;100.00
7888;BME280;3989;48.810;9.208;2022-12-07T14:42:54;98621.72;;;4.51;100.00
7888;BME280;3989;48.810;9.208;2022-12-07T14:45:24;98712.00;;;4.93;100.00
7888;BME280;3989;48.810;9.208;2022-12-07T14:47:53;98708.56;;;4.83;100.00
7888;BME280;3989;48.810;9.208;2022-12-07T14:50:21;98664.84;;;4.51;100.00
7888;BME280;3989;48.810;9.208;2022-12-07T14:52:54;98624.31;;;4.14;100.00
7888;BME280;3989;48.810;9.208;2022-12-07T14:55:24;98709.28;;;4.65;100.00
7888;BME280;3989;48.810;9.208;2022-12-07T14:57:52;98574.09;;;3.67;100.00
7888;BME280;3989;48.810;9.208;2022-12-07T15:00:20;98618.94;;;3.96;100.00
7888;BME280;3989;48.810;9.208;2022-12-07T15:02:50;98712.41;;;4.51;100.00
7888;BME280;3989;48.810;9.208;2022-12-07T15:05:18;98678.94;;;4.23;100.00
7888;BME280;3989;48.810;9.208;2022-12-07T15:07:46;98649.09;;;4.03;100.00
7888;BME280;3989;48.810;9.208;2022-12-07T15:10:16;98690.88;;;4.27;100.00
7888;BME280;3989;48.810;9.208;2022-12-07T15:12:43;98657.00;;;4.03;100.00
7888;BME280;3989;48.810;9.208;2022-12-07T15:15:11;98623.13;;;3.80;100.00
7888;BME280;3989;48.810;9.208;2022-12-07T15:17:38;98711.19;;;4.36;100.00
7888;BME280;3989;48.810;9.208;2022-12-07T15:20:12;98712.16;;;4.35;100.00
7888;BME280;3989;48.810;9.208;2022-12-07T15:22:46;98721.88;;;4.35;100.00
7888;BME280;3989;48.810;9.208;2022-12-07T15:25:17;98585.75;;;3.46;100.00
7888;BME280;3989;48.810;9.208;2022-12-07T16:54:37;98661.16;;;2.59;100.00
7888;BME280;3989;48.810;9.208;2022-12-07T16:57:03;98657.53;;;2.50;100.00
7888;BME280;3989;48.810;9.208;2022-12-07T16:59:30;98652.78;;;2.44;100.00
7888;BME280;3989;48.810;9.208;2022-12-07T17:01:56;98635.41;;;2.32;100.00
7888;BME280;3989;48.810;9.208;2022-12-07T17:04:23;98649.47;;;2.42;100.00
7888;BME280;3989;48.810;9.208;2022-12-07T17:06:50;98652.84;;;2.54;100.00
7888;BME280;3989;48.810;9.208;2022-12-07T17:09:16;98602.81;;;2.33;100.00
7888;BME280;3989;48.810;9.208;2022-12-07T17:11:44;98635.53;;;2.61;100.00
7888;BME280;3989;48.810;9.208;2022-12-07T17:14:11;98579.16;;;2.43;100.00
7888;BME280;3989;48.810;9.208;2022-12-07T17:16:55;98594.88;;;2.54;100.00
7888;BME280;3989;48.810;9.208;2022-12-07T17:19:22;98590.88;;;2.59;100.00
7888;BME280;3989;48.810;9.208;2022-12-07T17:21:48;98596.03;;;2.61;100.00
7888;BME280;3989;48.810;9.208;2022-12-07T17:24:16;98620.91;;;2.78;100.00
7888;BME280;3989;48.810;9.208;2022-12-07T17:26:45;98580.47;;;2.48;100.00
7888;BME280;3989;48.810;9.208;2022-12-07T17:29:14;98617.56;;;2.76;100.00
7888;BME280;3989;48.810;9.208;2022-12-07T17:31:41;98620.19;;;2.76;100.00
7888;BME280;3989;48.810;9.208;2022-12-07T17:34:10;98631.88;;;2.83;100.00
7888;BME280;3989;48.810;9.208;2022-12-07T17:36:37;98614.63;;;2.69;100.00
7888;BME280;3989;48.810;9.208;2022-12-07T17:39:06;98616.28;;;2.70;100.00
7888;BME280;3989;48.810;9.208;2022-12-07T17:41:33;98624.81;;;2.83;100.00
7888;BME280;3989;48.810;9.208;2022-12-07T17:44:23;98617.81;;;2.73;100.00
7888;BME280;3989;48.810;9.208;2022-12-07T17:46:52;98634.50;;;2.83;100.00
7888;BME280;3989;48.810;9.208;2022-12-07T17:49:22;98621.72;;;2.78;100.00
7888;BME280;3989;48.810;9.208;2022-12-07T17:51:49;98621.72;;;2.78;100.00
7888;BME280;3989;48.810;9.208;2022-12-07T17:54:33;98633.66;;;2.82;100.00
7888;BME280;3989;48.810;9.208;2022-12-07T17:56:59;98630.06;;;2.83;100.00
7888;BME280;3989;48.810;9.208;2022-12-07T17:59:27;98596.28;;;2.58;100.00
7888;BME280;3989;48.810;9.208;2022-12-07T18:01:54;98603.13;;;2.70;100.00
7888;BME280;3989;48.810;9.208;2022-12-07T18:04:20;98614.66;;;2.79;100.00
7888;BME280;3989;48.810;9.208;2022-12-07T18:06:47;98629.81;;;2.86;100.00
7888;BME280;3989;48.810;9.208;2022-12-07T18:09:14;98626.50;;;2.94;100.00
7888;BME280;3989;48.810;9.208;2022-12-07T18:11:40;98626.25;;;2.97;100.00
7888;BME280;3989;48.810;9.208;2022-12-07T18:14:07;98628.75;;;3.08;100.00
7888;BME280;3989;48.810;9.208;2022-12-07T18:16:35;98588.59;;;2.85;100.00
7888;BME280;3989;48.810;9.208;2022-12-07T18:19:04;98616.66;;;3.05;100.00
7888;BME280;3989;48.810;9.208;2022-12-07T18:21:31;98621.28;;;3.13;100.00
7888;BME280;3989;48.810;9.208;2022-12-07T18:24:00;98637.91;;;3.13;100.00
7888;BME280;3989;48.810;9.208;2022-12-07T18:26:28;98630.44;;;3.18;100.00
7888;BME280;3989;48.810;9.208;2022-12-07T18:28:57;98600.16;;;3.03;100.00
7888;BME280;3989;48.810;9.208;2022-12-07T18:31:24;98632.41;;;3.26;100.00
7888;BME280;3989;48.810;9.208;2022-12-07T18:33:52;98616.59;;;3.26;100.00
7888;BME280;3989;48.810;9.208;2022-12-07T18:36:21;98623.94;;;3.32;100.00
7888;BME280;3989;48.810;9.208;2022-12-07T18:38:48;98566.41;;;2.97;100.00
7888;BME280;3989;48.810;9.208;2022-12-07T18:41:14;98600.31;;;3.21;100.00
7888;BME280;3989;48.810;9.208;2022-12-07T18:43:41;98619.63;;;3.31;100.00
7888;BME280;3989;48.810;9.208;2022-12-07T18:46:09;98584.63;;;3.10;100.00
7888;BME280;3989;48.810;9.208;2022-12-07T18:48:36;98591.16;;;3.15;100.00
7888;BME280;3989;48.810;9.208;2022-12-07T18:51:06;98619.75;;;3.30;100.00
7888;BME280;3989;48.810;9.208;2022-12-07T18:53:33;98612.38;;;3.24;100.00
7888;BME280;3989;48.810;9.208;2022-12-07T18:56:02;98622.28;;;3.31;100.00
7888;BME280;3989;48.810;9.208;2022-12-07T18:58:29;98627.16;;;3.36;100.00
7888;BME280;3989;48.810;9.208;2022-12-07T19:00:56;98604.34;;;3.15;100.00
7888;BME280;3989;48.810;9.208;2022-12-07T19:03:23;98621.44;;;3.31;100.00
7888;BME280;3989;48.810;9.208;2022-12-07T19:05:50;98617.53;;;3.25;100.00
7888;BME280;3989;48.810;9.208;2022-12-07T19:08:20;98585.03;;;2.96;100.00
7888;BME280;3989;48.810;9.208;2022-12-07T19:10:46;98616.97;;;3.12;100.00
7888;BME280;3989;48.810;9.208;2022-12-07T19:13:13;98616.56;;;3.07;100.00
7888;BME280;3989;48.810;9.208;2022-12-07T19:15:40;98606.69;;;2.99;100.00
7888;BME280;3989;48.810;9.208;2022-12-07T19:18:06;98598.31;;;2.94;100.00
7888;BME280;3989;48.810;9.208;2022-12-07T19:20:33;98613.34;;;2.94;100.00
7888;BME280;3989;48.810;9.208;2022-12-07T19:22:59;98620.69;;;3.00;100.00
7888;BME280;3989;48.810;9.208;2022-12-07T19:25:27;98609.44;;;2.98;100.00
7888;BME280;3989;48.810;9.208;2022-12-07T19:27:54;98602.25;;;3.00;100.00
7888;BME280;3989;48.810;9.208;2022-12-07T19:30:21;98597.25;;;2.97;100.00
7888;BME280;3989;48.810;9.208;2022-12-07T19:32:47;98602.94;;;3.02;100.00
7888;BME280;3989;48.810;9.208;2022-12-07T19:35:14;98603.19;;;2.99;100.00
7888;BME280;3989;48.810;9.208;2022-12-07T19:37:41;98602.50;;;2.97;100.00
7888;BME280;3989;48.810;9.208;2022-12-07T19:40:08;98586.81;;;2.86;100.00
7888;BME280;3989;48.810;9.208;2022-12-07T19:42:36;98572.47;;;2.69;100.00
7888;BME280;3989;48.810;9.208;2022-12-07T19:45:04;98619.28;;;2.96;100.00
7888;BME280;3989;48.810;9.208;2022-12-07T19:47:31;98585.66;;;2.79;100.00
7888;BME280;3989;48.810;9.208;2022-12-07T19:49:57;98609.59;;;2.96;100.00
7888;BME280;3989;48.810;9.208;2022-12-07T19:52:24;98614.13;;;2.94;100.00
7888;BME280;3989;48.810;9.208;2022-12-07T19:54:51;98613.06;;;2.97;100.00
7888;BME280;3989;48.810;9.208;2022-12-07T19:57:18;98610.28;;;2.98;100.00
7888;BME280;3989;48.810;9.208;2022-12-07T19:59:46;98599.31;;;2.93;100.00
7888;BME280;3989;48.810;9.208;2022-12-07T20:02:13;98609.44;;;2.98;100.00
7888;BME280;3989;48.810;9.208;2022-12-07T20:04:40;98590.56;;;2.93;100.00
7888;BME280;3989;48.810;9.208;2022-12-07T20:07:07;98580.28;;;2.90;100.00
7888;BME280;3989;48.810;9.208;2022-12-07T20:09:33;98594.44;;;2.98;100.00
7888;BME280;3989;48.810;9.208;2022-12-07T20:12:00;98592.94;;;2.96;100.00
7888;BME280;3989;48.810;9.208;2022-12-07T20:14:46;98575.28;;;2.87;100.00
7888;BME280;3989;48.810;9.208;2022-12-07T20:17:12;98584.03;;;2.87;100.00
7888;BME280;3989;48.810;9.208;2022-12-07T20:19:39;98583.06;;;2.88;100.00
7888;BME280;3989;48.810;9.208;2022-12-07T20:22:06;98590.97;;;2.88;100.00
7888;BME280;3989;48.810;9.208;2022-12-07T20:24:33;98574.44;;;2.77;100.00
7888;BME280;3989;48.810;9.208;2022-12-07T20:27:01;98591.38;;;2.84;100.00
7888;BME280;3989;48.810;9.208;2022-12-07T20:29:27;98577.06;;;2.77;100.00
7888;BME280;3989;48.810;9.208;2022-12-07T20:31:56;98588.75;;;2.84;100.00
7888;BME280;3989;48.810;9.208;2022-12-07T20:34:23;98586.69;;;2.87;100.00
7888;BME280;3989;48.810;9.208;2022-12-07T20:36:51;98579.56;;;2.88;100.00
7888;BME280;3989;48.810;9.208;2022-12-07T20:39:17;98579.47;;;2.89;100.00
7888;BME280;3989;48.810;9.208;2022-12-07T20:41:44;98574.31;;;2.88;100.00
7888;BME280;3989;48.810;9.208;2022-12-07T20:44:28;98571.13;;;2.84;100.00
7888;BME280;3989;48.810;9.208;2022-12-07T20:46:56;98561.81;;;2.80;100.00
7888;BME280;3989;48.810;9.208;2022-12-07T20:49:22;98553.91;;;2.71;100.00
7888;BME280;3989;48.810;9.208;2022-12-07T20:51:49;98556.69;;;2.79;100.00
7888;BME280;3989;48.810;9.208;2022-12-07T20:54:16;98562.22;;;2.76;100.00
7888;BME280;3989;48.810;9.208;2022-12-07T20:56:42;98531.13;;;2.60;100.00
7888;BME280;3989;48.810;9.208;2022-12-07T20:59:12;98543.06;;;2.64;100.00
7888;BME280;3989;48.810;9.208;2022-12-07T21:01:39;98555.00;;;2.68;100.00
7888;BME280;3989;48.810;9.208;2022-12-07T21:04:09;98503.31;;;2.37;100.00
7888;BME280;3989;48.810;9.208;2022-12-07T21:06:36;98558.31;;;2.60;100.00
7888;BME280;3989;48.810;9.208;2022-12-07T21:09:03;98549.84;;;2.57;100.00
7888;BME280;3989;48.810;9.208;2022-12-07T21:11:30;98540.53;;;2.53;100.00
7888;BME280;3989;48.810;9.208;2022-12-07T21:13:57;98537.34;;;2.59;100.00
7888;BME280;3989;48.810;9.208;2022-12-07T21:16:26;98537.53;;;2.67;100.00
7888;BME280;3989;48.810;9.208;2022-12-07T21:18:54;98521.44;;;2.60;100.00
7888;BME280;3989;48.810;9.208;2022-12-07T21:21:23;98526.56;;;2.72;100.00
7888;BME280;3989;48.810;9.208;2022-12-07T21:23:51;98540.75;;;2.80;100.00
7888;BME280;3989;48.810;9.208;2022-12-07T21:26:20;98536.03;;;2.84;100.00
7888;BME280;3989;48.810;9.208;2022-12-07T21:28:48;98537.13;;;2.81;100.00
7888;BME280;3989;48.810;9.208;2022-12-07T21:31:15;98537.53;;;2.77;100.00
7888;BME280;3989;48.810;9.208;2022-12-07T21:33:43;98534.75;;;2.78;100.00
7888;BME280;3989;48.810;9.208;2022-12-07T21:36:11;98517.69;;;2.63;100.00
7888;BME280;3989;48.810;9.208;2022-12-07T21:38:40;98525.59;;;2.63;100.00
7888;BME280;3989;48.810;9.208;2022-12-07T21:41:11;98531.41;;;2.67;100.00
7888;BME280;3989;48.810;9.208;2022-12-07T21:43:38;98513.19;;;2.44;100.00
7888;BME280;3989;48.810;9.208;2022-12-07T21:46:05;98514.31;;;2.42;100.00
7888;BME280;3989;48.810;9.208;2022-12-07T21:48:31;98452.00;;;1.82;100.00
7888;BME280;3989;48.810;9.208;2022-12-07T21:51:03;98524.28;;;2.08;100.00
7888;BME280;3989;48.810;9.208;2022-12-07T21:53:30;98516.09;;;2.01;100.00
7888;BME280;3989;48.810;9.208;2022-12-07T21:55:58;98525.47;;;1.94;100.00
7888;BME280;3989;48.810;9.208;2022-12-07T21:58:24;98516.13;;;1.81;100.00
7888;BME280;3989;48.810;9.208;2022-12-07T22:00:51;98472.00;;;1.43;100.00
7888;BME280;3989;48.810;9.208;2022-12-07T22:03:17;98523.78;;;1.63;100.00
7888;BME280;3989;48.810;9.208;2022-12-07T22:05:44;98524.97;;;1.59;100.00
7888;BME280;3989;48.810;9.208;2022-12-07T22:08:11;98519.03;;;1.57;100.00
7888;BME280;3989;48.810;9.208;2022-12-07T22:10:37;98521.34;;;1.50;100.00
7888;BME280;3989;48.810;9.208;2022-12-07T22:13:05;98527.38;;;1.41;100.00
7888;BME280;3989;48.810;9.208;2022-12-07T22:15:32;98520.13;;;1.34;100.00
7888;BME280;3989;48.810;9.208;2022-12-07T22:17:57;98519.72;;;1.18;100.00
7888;BME280;3989;48.810;9.208;2022-12-07T22:20:24;98524.44;;;1.03;100.00
7888;BME280;3989;48.810;9.208;2022-12-07T22:22:51;98475.59;;;0.69;100.00
7888;BME280;3989;48.810;9.208;2022-12-07T22:25:18;98523.53;;;0.93;100.00
7888;BME280;3989;48.810;9.208;2022-12-07T22:27:44;98477.63;;;0.65;100.00
7888;BME280;3989;48.810;9.208;2022-12-07T22:30:12;98517.59;;;0.80;100.00
7888;BME280;3989;48.810;9.208;2022-12-07T22:32:39;98507.94;;;0.80;100.00
7888;BME280;3989;48.810;9.208;2022-12-07T22:35:06;98493.88;;;0.70;100.00
7888;BME280;3989;48.810;9.208;2022-12-07T22:37:33;98519.13;;;0.82;100.00
7888;BME280;3989;48.810;9.208;2022-12-07T22:40:00;98520.09;;;0.81;100.00
7888;BME280;3989;48.810;9.208;2022-12-07T22:42:26;98515.31;;;0.75;100.00
7888;BME280;3989;48.810;9.208;2022-12-07T22:44:53;98515.81;;;0.69;100.00
7888;BME280;3989;48.810;9.208;2022-12-07T22:47:21;98511.44;;;0.59;100.00
7888;BME280;3989;48.810;9.208;2022-12-07T22:49:47;98515.03;;;0.46;100.00
7888;BME280;3989;48.810;9.208;2022-12-07T22:52:15;98512.56;;;0.34;100.00
7888;BME280;3989;48.810;9.208;2022-12-07T22:54:42;98514.38;;;0.22;100.00
7888;BME280;3989;48.810;9.208;2022-12-07T22:57:08;98507.31;;;0.00;100.00
7888;BME280;3989;48.810;9.208;2022-12-07T22:59:35;98515.19;;;0.00;100.00
7888;BME280;3989;48.810;9.208;2022-12-07T23:02:02;98504.13;;;-0.14;100.00
7888;BME280;3989;48.810;9.208;2022-12-07T23:04:30;98346.41;;;-1.10;100.00
7888;BME280;3989;48.810;9.208;2022-12-07T23:06:57;98387.06;;;-0.82;100.00
7888;BME280;3989;48.810;9.208;2022-12-07T23:09:24;98500.56;;;-0.13;100.00
7888;BME280;3989;48.810;9.208;2022-12-07T23:11:51;98475.38;;;-0.38;100.00
7888;BME280;3989;48.810;9.208;2022-12-07T23:14:49;98486.59;;;-0.36;100.00
7888;BME280;3989;48.810;9.208;2022-12-07T23:17:18;98509.56;;;-0.28;100.00
7888;BME280;3989;48.810;9.208;2022-12-07T23:19:46;98472.00;;;-0.51;100.00
7888;BME280;3989;48.810;9.208;2022-12-07T23:22:12;98507.81;;;-0.39;100.00
7888;BME280;3989;48.810;9.208;2022-12-07T23:24:39;98506.47;;;-0.44;100.00
7888;BME280;3989;48.810;9.208;2022-12-07T23:27:06;98500.50;;;-0.46;100.00
7888;BME280;3989;48.810;9.208;2022-12-07T23:29:32;98434.69;;;-0.88;100.00
7888;BME280;3989;48.810;9.208;2022-12-07T23:31:59;98451.00;;;-0.84;100.00
7888;BME280;3989;48.810;9.208;2022-12-07T23:34:25;98444.44;;;-0.90;100.00
7888;BME280;3989;48.810;9.208;2022-12-07T23:36:53;98483.22;;;-0.60;100.00
7888;BME280;3989;48.810;9.208;2022-12-07T23:39:20;98436.75;;;-0.69;100.00
7888;BME280;3989;48.810;9.208;2022-12-07T23:41:47;98331.78;;;-1.23;100.00
7888;BME280;3989;48.810;9.208;2022-12-07T23:44:13;98380.28;;;-0.73;100.00
7888;BME280;3989;48.810;9.208;2022-12-07T23:46:40;98478.59;;;-0.01;100.00